createdAt,value
2022-07-27T00:01:00.185Z,17.79
2022-07-27T00:03:27.029Z,17.69
2022-07-27T00:05:53.756Z,17.80
2022-07-27T00:08:20.891Z,17.74
2022-07-27T00:10:48.126Z,17.59
2022-07-27T00:13:14.940Z,17.75
2022-07-27T00:15:42.090Z,17.69
2022-07-27T00:18:09.750Z,17.70
2022-07-27T00:20:36.865Z,17.65
2022-07-27T00:23:03.671Z,17.51
2022-07-27T00:25:30.422Z,17.42
2022-07-27T00:27:57.226Z,17.53
2022-07-27T00:30:24.847Z,17.62
2022-07-27T00:32:52.224Z,17.49
2022-07-27T00:35:19.194Z,17.23
2022-07-27T00:37:46.249Z,17.21
2022-07-27T00:40:13.126Z,17.19
2022-07-27T00:42:39.927Z,17.12
2022-07-27T00:45:07.292Z,17.17
2022-07-27T00:47:34.157Z,17.12
2022-07-27T00:50:01.243Z,17.04
2022-07-27T00:52:28.903Z,16.98
2022-07-27T00:54:55.873Z,17.03
2022-07-27T00:57:23.744Z,16.98
2022-07-27T00:59:50.469Z,16.82
2022-07-27T01:02:19.315Z,17.01
2022-07-27T01:04:47.200Z,16.92
2022-07-27T01:07:15.190Z,16.96
2022-07-27T01:10:03.054Z,16.79
2022-07-27T01:12:32.392Z,16.85
2022-07-27T01:15:00.515Z,16.69
2022-07-27T01:17:30.929Z,16.84
2022-07-27T01:19:59.249Z,16.75
2022-07-27T01:22:27.145Z,16.85
2022-07-27T01:24:54.042Z,16.68
2022-07-27T01:27:21.390Z,16.68
2022-07-27T01:29:48.887Z,16.64
2022-07-27T01:32:16.053Z,16.48
2022-07-27T01:34:42.973Z,16.33
2022-07-27T01:37:10.007Z,16.26
2022-07-27T01:39:36.851Z,16.46
2022-07-27T01:42:04.111Z,16.68
2022-07-27T01:44:31.122Z,16.53
2022-07-27T01:46:57.851Z,16.48
2022-07-27T01:49:24.644Z,16.38
2022-07-27T01:51:51.851Z,16.27
2022-07-27T01:54:18.611Z,16.21
2022-07-27T01:56:45.494Z,16.21
2022-07-27T01:59:16.918Z,16.15
2022-07-27T02:01:44.811Z,16.21
2022-07-27T02:04:11.905Z,16.12
2022-07-27T02:06:39.597Z,16.07
2022-07-27T02:09:06.743Z,16.16
2022-07-27T02:11:52.489Z,16.06
2022-07-27T02:14:21.156Z,16.00
2022-07-27T02:16:48.804Z,15.90
2022-07-27T02:19:18.215Z,16.01
2022-07-27T02:21:45.328Z,15.98
2022-07-27T02:24:12.074Z,15.99
2022-07-27T02:26:38.903Z,15.91
2022-07-27T02:29:05.651Z,16.01
2022-07-27T02:31:32.768Z,15.81
2022-07-27T02:34:00.098Z,15.88
2022-07-27T02:36:29.480Z,15.91
2022-07-27T02:38:57.452Z,15.85
2022-07-27T02:41:25.236Z,15.84
2022-07-27T02:43:52.001Z,15.82
2022-07-27T02:46:18.914Z,15.84
2022-07-27T02:48:45.842Z,15.86
2022-07-27T02:51:12.872Z,15.91
2022-07-27T02:53:39.611Z,15.89
2022-07-27T02:56:06.659Z,15.64
2022-07-27T02:58:33.393Z,15.54
2022-07-27T03:01:00.131Z,15.53
2022-07-27T03:03:33.875Z,15.47
2022-07-27T03:06:03.405Z,15.61
2022-07-27T03:08:30.318Z,15.49
2022-07-27T03:10:57.125Z,15.43
2022-07-27T03:13:23.903Z,15.37
2022-07-27T03:15:50.812Z,15.23
2022-07-27T03:18:18.165Z,15.11
2022-07-27T03:20:45.129Z,15.32
2022-07-27T03:23:12.034Z,15.17
2022-07-27T03:25:39.041Z,15.30
2022-07-27T03:28:06.150Z,15.41
2022-07-27T03:30:33.649Z,15.57
2022-07-27T03:33:00.511Z,15.46
2022-07-27T03:35:27.590Z,15.48
2022-07-27T03:37:54.545Z,15.30
2022-07-27T03:40:21.443Z,15.37
2022-07-27T03:42:48.295Z,15.27
2022-07-27T03:45:15.162Z,15.09
2022-07-27T03:47:41.968Z,15.45
2022-07-27T03:50:08.981Z,15.36
2022-07-27T03:52:35.845Z,15.37
2022-07-27T03:55:02.647Z,15.49
2022-07-27T03:57:30.306Z,15.18
2022-07-27T03:59:57.141Z,15.31
2022-07-27T04:02:24.043Z,15.42
2022-07-27T04:04:51.177Z,15.40
2022-07-27T04:07:18.293Z,15.03
2022-07-27T04:12:10.310Z,15.67
2022-07-27T04:14:37.384Z,15.46
2022-07-27T04:17:04.914Z,15.52
2022-07-27T04:19:31.863Z,15.50
2022-07-27T04:21:58.666Z,15.53
2022-07-27T04:24:27.083Z,15.52
2022-07-27T04:26:54.000Z,15.48
2022-07-27T04:29:21.600Z,15.70
2022-07-27T04:31:49.144Z,15.73
2022-07-27T04:34:16.061Z,15.67
2022-07-27T04:36:42.975Z,15.46
2022-07-27T04:39:10.006Z,15.63
2022-07-27T04:41:37.101Z,15.70
2022-07-27T04:46:42.950Z,15.62
2022-07-27T04:49:10.081Z,15.79
2022-07-27T04:51:37.119Z,15.72
2022-07-27T04:54:04.050Z,15.81
2022-07-27T04:56:31.034Z,15.96
2022-07-27T04:58:57.836Z,16.08
2022-07-27T05:01:27.381Z,16.14
2022-07-27T05:03:56.068Z,16.11
2022-07-27T05:06:22.836Z,16.36
2022-07-27T05:08:49.621Z,16.39
2022-07-27T05:11:16.529Z,16.40
2022-07-27T05:13:43.345Z,16.75
2022-07-27T05:16:11.487Z,16.98
2022-07-27T05:18:39.204Z,17.09
2022-07-27T05:21:07.820Z,17.16
2022-07-27T05:23:35.085Z,17.26
2022-07-27T05:26:02.121Z,17.41
2022-07-27T05:28:29.054Z,17.74
2022-07-27T05:30:56.772Z,17.90
2022-07-27T05:33:23.541Z,18.03
2022-07-27T05:35:50.311Z,18.11
2022-07-27T05:38:17.252Z,18.24
2022-07-27T05:40:45.607Z,18.37
2022-07-27T05:43:12.441Z,18.61
2022-07-27T05:45:39.492Z,18.75
2022-07-27T05:48:06.423Z,18.78
2022-07-27T05:50:33.183Z,18.76
2022-07-27T05:53:00.841Z,18.76
2022-07-27T05:55:27.765Z,18.88
2022-07-27T05:57:54.554Z,19.05
2022-07-27T06:00:21.361Z,19.16
2022-07-27T06:02:48.114Z,19.42
2022-07-27T06:05:17.216Z,19.39
2022-07-27T06:07:59.315Z,19.53
2022-07-27T06:10:37.711Z,19.81
2022-07-27T06:13:07.358Z,20.07
2022-07-27T06:15:34.749Z,20.18
2022-07-27T06:18:02.847Z,20.34
2022-07-27T06:20:30.435Z,20.56
2022-07-27T06:23:00.555Z,20.87
2022-07-27T06:25:34.356Z,20.94
2022-07-27T06:28:06.322Z,21.31
2022-07-27T06:30:33.472Z,21.48
2022-07-27T06:33:04.341Z,21.36
2022-07-27T06:35:31.770Z,21.30
2022-07-27T06:37:58.557Z,21.18
2022-07-27T06:40:29.453Z,21.32
2022-07-27T06:42:56.629Z,21.56
2022-07-27T06:45:23.372Z,21.61
2022-07-27T06:47:51.312Z,21.83
2022-07-27T06:50:20.577Z,22.19
2022-07-27T06:52:48.227Z,22.55
2022-07-27T06:55:16.101Z,23.01
2022-07-27T06:57:43.884Z,23.23
2022-07-27T07:00:12.009Z,23.37
2022-07-27T07:02:40.386Z,23.49
2022-07-27T07:05:07.467Z,23.90
2022-07-27T07:07:34.408Z,23.84
2022-07-27T07:10:01.243Z,23.72
2022-07-27T07:12:28.584Z,23.89
2022-07-27T07:14:55.528Z,23.98
2022-07-27T07:17:22.338Z,24.10
2022-07-27T07:19:49.261Z,24.40
2022-07-27T07:22:16.025Z,25.00
2022-07-27T07:24:42.742Z,24.93
2022-07-27T07:27:09.537Z,25.00
2022-07-27T07:29:36.507Z,25.12
2022-07-27T07:32:03.390Z,25.37
2022-07-27T07:34:30.151Z,25.49
2022-07-27T07:36:56.955Z,25.82
2022-07-27T07:39:29.160Z,25.69
2022-07-27T07:41:57.877Z,25.57
2022-07-27T07:44:24.834Z,25.44
2022-07-27T07:46:51.829Z,25.63
2022-07-27T07:49:19.188Z,26.01
2022-07-27T07:52:06.009Z,26.41
2022-07-27T07:54:32.880Z,26.81
2022-07-27T07:56:59.618Z,27.00
2022-07-27T07:59:26.861Z,27.25
2022-07-27T08:01:53.690Z,27.37
2022-07-27T08:04:20.539Z,27.20
2022-07-27T08:06:47.380Z,27.25
2022-07-27T08:09:17.095Z,27.32
2022-07-27T08:11:44.536Z,27.54
2022-07-27T08:14:11.403Z,28.20
2022-07-27T08:16:38.408Z,27.95
2022-07-27T08:19:05.485Z,27.62
2022-07-27T08:21:36.134Z,27.33
2022-07-27T08:24:03.508Z,27.47
2022-07-27T08:26:30.305Z,27.73
2022-07-27T08:28:57.429Z,28.05
2022-07-27T08:31:52.967Z,27.64
2022-07-27T08:34:13.370Z,27.58
2022-07-27T08:36:40.195Z,27.56
2022-07-27T08:39:08.742Z,27.92
2022-07-27T08:41:43.200Z,28.13
2022-07-27T08:44:14.335Z,28.17
2022-07-27T08:46:44.823Z,28.53
2022-07-27T08:49:13.714Z,28.45
2022-07-27T08:51:46.876Z,28.03
2022-07-27T08:54:14.509Z,27.54
2022-07-27T08:56:41.398Z,27.47
2022-07-27T08:59:08.119Z,27.46
2022-07-27T09:01:38.767Z,27.77
2022-07-27T09:04:08.274Z,27.76
2022-07-27T09:06:54.250Z,27.78
2022-07-27T09:09:22.333Z,27.56
2022-07-27T09:12:07.300Z,27.59
2022-07-27T09:14:35.962Z,28.05
2022-07-27T09:17:47.987Z,28.28
2022-07-27T09:20:18.899Z,27.91
2022-07-27T09:22:55.110Z,27.71
2022-07-27T09:25:52.241Z,27.56
2022-07-27T09:28:12.016Z,27.81
2022-07-27T09:30:45.490Z,28.14
2022-07-27T09:33:15.799Z,28.40
2022-07-27T09:35:42.672Z,28.67
2022-07-27T09:38:23.710Z,28.88
2022-07-27T09:41:05.101Z,29.18
2022-07-27T09:46:36.294Z,29.48
2022-07-27T09:49:04.546Z,29.47
2022-07-27T09:51:58.783Z,29.47
2022-07-27T09:54:20.148Z,28.66
2022-07-27T09:57:01.876Z,27.94
2022-07-27T09:59:30.027Z,27.74
2022-07-27T10:01:57.662Z,28.06
2022-07-27T10:04:25.134Z,27.34
2022-07-27T10:07:12.663Z,27.04
2022-07-27T10:09:39.680Z,26.66
2022-07-27T10:12:06.907Z,26.43
2022-07-27T10:14:33.711Z,26.41
2022-07-27T10:17:01.311Z,26.71
2022-07-27T10:19:46.950Z,26.72
2022-07-27T10:22:14.820Z,26.50
2022-07-27T10:24:41.870Z,26.33
2022-07-27T10:27:29.820Z,26.54
2022-07-27T10:29:58.133Z,26.13
2022-07-27T10:32:27.740Z,25.89
2022-07-27T10:34:55.745Z,26.08
2022-07-27T10:37:30.914Z,26.32
2022-07-27T10:40:18.517Z,26.38
2022-07-27T10:42:51.897Z,26.78
2022-07-27T10:45:21.402Z,26.99
2022-07-27T10:47:52.636Z,27.57
2022-07-27T10:50:21.646Z,27.66
2022-07-27T10:53:06.240Z,28.13
2022-07-27T10:55:34.221Z,28.57
2022-07-27T10:58:10.226Z,29.52
2022-07-27T11:00:54.168Z,29.62
2022-07-27T11:03:29.310Z,28.87
2022-07-27T11:06:08.924Z,28.40
2022-07-27T11:08:47.846Z,28.29
2022-07-27T11:11:20.878Z,28.50
2022-07-27T11:13:50.951Z,29.24
2022-07-27T11:16:24.568Z,29.46
2022-07-27T11:18:55.745Z,29.76
2022-07-27T11:21:29.534Z,30.37
2022-07-27T11:23:59.441Z,30.43
2022-07-27T11:26:28.241Z,30.51
2022-07-27T11:28:55.035Z,30.14
2022-07-27T11:31:38.659Z,30.39
2022-07-27T11:34:10.339Z,30.51
2022-07-27T11:36:50.332Z,30.14
2022-07-27T11:39:49.727Z,29.86
2022-07-27T11:42:12.259Z,29.71
2022-07-27T11:44:41.338Z,29.63
2022-07-27T11:47:09.163Z,29.17
2022-07-27T11:49:35.997Z,29.31
2022-07-27T11:52:06.322Z,29.18
2022-07-27T11:54:41.676Z,29.14
2022-07-27T11:57:12.873Z,28.68
2022-07-27T11:59:41.871Z,28.43
2022-07-27T12:02:09.743Z,28.38
2022-07-27T12:04:38.882Z,28.30
2022-07-27T12:07:15.628Z,28.56
2022-07-27T12:09:50.511Z,28.70
2022-07-27T12:12:21.561Z,28.90
2022-07-27T12:14:54.602Z,28.54
2022-07-27T12:17:38.002Z,28.87
2022-07-27T12:20:13.594Z,28.75
2022-07-27T12:22:54.272Z,28.22
2022-07-27T12:25:25.665Z,28.04
2022-07-27T12:28:13.002Z,27.90
2022-07-27T12:30:45.695Z,27.57
2022-07-27T12:33:35.322Z,28.18
2022-07-27T12:36:05.273Z,27.50
2022-07-27T12:38:48.808Z,28.34
2022-07-27T12:41:38.213Z,28.32
2022-07-27T12:44:12.396Z,27.64
2022-07-27T12:47:27.687Z,27.60
2022-07-27T12:50:12.997Z,27.81
2022-07-27T12:52:49.109Z,27.72
2022-07-27T12:55:16.248Z,28.00
2022-07-27T12:57:55.861Z,27.63
2022-07-27T13:00:30.914Z,27.33
2022-07-27T13:03:04.145Z,27.60
2022-07-27T13:05:31.891Z,27.74
2022-07-27T13:07:59.254Z,27.69
2022-07-27T13:10:27.045Z,27.65
2022-07-27T13:12:53.887Z,27.73
2022-07-27T13:15:20.791Z,28.01
2022-07-27T13:17:48.704Z,27.92
2022-07-27T13:20:17.056Z,27.62
2022-07-27T13:22:45.471Z,27.60
2022-07-27T13:25:15.522Z,26.98
2022-07-27T13:27:45.193Z,26.83
2022-07-27T13:30:13.613Z,26.91
2022-07-27T13:32:41.443Z,27.03
2022-07-27T13:35:10.233Z,27.21
2022-07-27T13:37:37.103Z,27.38
2022-07-27T13:40:05.633Z,26.91
2022-07-27T13:42:32.461Z,26.93
2022-07-27T13:45:09.387Z,26.19
2022-07-27T13:47:41.343Z,25.73
2022-07-27T13:50:17.077Z,25.44
2022-07-27T13:52:46.707Z,24.78
2022-07-27T13:55:18.245Z,24.81
2022-07-27T13:57:46.955Z,24.54
2022-07-27T14:00:15.427Z,24.25
2022-07-27T14:02:42.762Z,24.16
2022-07-27T14:05:12.950Z,24.00
2022-07-27T14:07:40.836Z,24.13
2022-07-27T14:10:26.753Z,24.32
2022-07-27T14:12:58.834Z,24.59
2022-07-27T14:15:26.858Z,24.52
2022-07-27T14:17:53.799Z,24.22
2022-07-27T14:20:20.791Z,24.38
2022-07-27T14:22:47.770Z,23.93
2022-07-27T14:25:15.081Z,23.74
2022-07-27T14:27:45.740Z,23.87
2022-07-27T14:30:20.583Z,23.72
2022-07-27T14:32:48.697Z,24.15
2022-07-27T14:35:15.500Z,23.96
2022-07-27T14:37:43.590Z,23.81
2022-07-27T14:40:11.214Z,23.60
2022-07-27T14:42:42.557Z,23.84
2022-07-27T14:45:10.000Z,23.77
2022-07-27T14:47:37.900Z,23.40
2022-07-27T14:50:05.673Z,23.20
2022-07-27T14:52:32.550Z,23.30
2022-07-27T14:55:00.799Z,22.68
2022-07-27T14:57:28.221Z,22.77
2022-07-27T14:59:57.419Z,22.84
2022-07-27T15:02:26.204Z,22.89
2022-07-27T15:04:53.077Z,22.69
2022-07-27T15:07:27.054Z,22.65
2022-07-27T15:09:53.809Z,22.67
2022-07-27T15:12:20.820Z,22.53
2022-07-27T15:14:47.601Z,22.42
2022-07-27T15:17:16.620Z,22.44
2022-07-27T15:19:43.534Z,22.32
2022-07-27T15:22:10.369Z,22.24
2022-07-27T15:24:38.499Z,22.41
2022-07-27T15:27:05.570Z,22.35
2022-07-27T15:29:33.897Z,22.47
2022-07-27T15:32:02.057Z,22.19
2022-07-27T15:34:29.454Z,22.21
2022-07-27T15:36:58.765Z,22.39
2022-07-27T15:39:25.793Z,22.01
2022-07-27T15:41:52.643Z,21.74
2022-07-27T15:44:21.073Z,21.60
2022-07-27T15:46:48.699Z,21.76
2022-07-27T15:49:16.598Z,21.76
2022-07-27T15:51:56.101Z,21.73
2022-07-27T15:54:30.138Z,21.55
2022-07-27T15:57:07.003Z,21.59
2022-07-27T15:59:36.532Z,21.58
2022-07-27T16:02:03.614Z,21.55
2022-07-27T16:07:27.634Z,21.61
2022-07-27T16:10:30.175Z,21.78
2022-07-27T16:12:57.917Z,22.27
2022-07-27T16:15:55.962Z,22.23
2022-07-27T16:18:23.493Z,22.22
2022-07-27T16:20:51.201Z,21.98
2022-07-27T16:23:25.429Z,22.02
2022-07-27T16:26:04.621Z,21.95
2022-07-27T16:28:34.227Z,22.12
2022-07-27T16:31:01.505Z,21.99
2022-07-27T16:33:28.375Z,21.93
2022-07-27T16:35:55.191Z,22.12
2022-07-27T16:38:21.957Z,22.26
2022-07-27T16:40:48.852Z,22.18
2022-07-27T16:43:15.695Z,22.03
2022-07-27T16:45:42.553Z,21.99
2022-07-27T16:48:10.087Z,21.84
2022-07-27T16:50:36.803Z,22.17
2022-07-27T16:53:04.111Z,22.15
2022-07-27T16:55:31.173Z,21.99
2022-07-27T16:57:57.973Z,22.15
2022-07-27T17:00:24.943Z,22.09
2022-07-27T17:02:51.930Z,21.89
2022-07-27T17:05:19.260Z,22.20
2022-07-27T17:07:46.140Z,22.37
2022-07-27T17:10:13.024Z,22.25
2022-07-27T17:12:53.634Z,22.56
2022-07-27T17:15:23.133Z,22.66
2022-07-27T17:17:53.044Z,22.16
2022-07-27T17:20:34.222Z,22.19
2022-07-27T17:23:04.039Z,21.91
2022-07-27T17:25:30.916Z,21.62
2022-07-27T17:27:58.396Z,21.63
2022-07-27T17:30:25.476Z,21.57
2022-07-27T17:32:53.543Z,21.39
2022-07-27T17:35:20.676Z,21.59
2022-07-27T17:38:05.694Z,21.21
2022-07-27T17:40:33.635Z,21.20
2022-07-27T17:43:00.413Z,21.37
2022-07-27T17:45:27.539Z,21.44
2022-07-27T17:47:54.762Z,21.38
2022-07-27T17:50:21.647Z,21.35
2022-07-27T17:52:48.639Z,21.33
2022-07-27T17:55:15.478Z,21.00
2022-07-27T17:57:42.342Z,21.12
2022-07-27T18:00:11.130Z,21.23
2022-07-27T18:02:37.961Z,20.61
2022-07-27T18:05:05.254Z,20.75
2022-07-27T18:07:39.120Z,20.48
2022-07-27T18:10:08.068Z,20.12
2022-07-27T18:12:35.815Z,20.26
2022-07-27T18:15:21.397Z,20.09
2022-07-27T18:17:48.317Z,19.53
2022-07-27T18:20:15.297Z,19.71
2022-07-27T18:22:43.902Z,19.96
2022-07-27T18:25:11.781Z,19.91
2022-07-27T18:27:38.749Z,19.94
2022-07-27T18:30:06.322Z,19.99
2022-07-27T18:32:33.739Z,20.04
2022-07-27T18:35:01.920Z,19.52
2022-07-27T18:37:28.932Z,19.72
2022-07-27T18:39:55.786Z,19.53
2022-07-27T18:42:22.972Z,19.56
2022-07-27T18:44:49.988Z,19.21
2022-07-27T18:47:16.846Z,18.79
2022-07-27T18:49:43.732Z,18.80
2022-07-27T18:52:10.611Z,19.01
2022-07-27T18:54:37.754Z,19.02
2022-07-27T18:57:05.824Z,18.85
2022-07-27T18:59:33.755Z,18.74
2022-07-27T19:02:07.674Z,18.81
2022-07-27T19:04:34.971Z,18.61
2022-07-27T19:07:01.899Z,18.46
2022-07-27T19:09:28.802Z,18.40
2022-07-27T19:11:55.604Z,18.40
2022-07-27T19:14:25.188Z,18.29
2022-07-27T19:16:52.466Z,18.08
2022-07-27T19:19:23.119Z,18.31
2022-07-27T19:21:50.611Z,17.75
2022-07-27T19:24:18.873Z,17.94
2022-07-27T19:26:45.787Z,17.95
2022-07-27T19:29:13.925Z,18.02
2022-07-27T19:31:40.907Z,17.73
2022-07-27T19:34:08.504Z,17.71
2022-07-27T19:36:35.778Z,17.77
2022-07-27T19:39:07.572Z,17.73
2022-07-27T19:41:35.244Z,17.46
2022-07-27T19:44:02.706Z,17.48
2022-07-27T19:46:31.916Z,17.50
2022-07-27T19:48:59.434Z,17.24
2022-07-27T19:51:26.953Z,17.52
2022-07-27T19:53:54.374Z,17.42
2022-07-27T19:56:21.305Z,17.30
2022-07-27T19:58:48.340Z,17.14
2022-07-27T20:01:15.189Z,17.12
2022-07-27T20:03:52.393Z,16.89
2022-07-27T20:06:22.369Z,17.22
2022-07-27T20:08:49.179Z,17.19
2022-07-27T20:11:16.294Z,17.11
2022-07-27T20:13:43.221Z,17.05
2022-07-27T20:16:10.673Z,16.95
2022-07-27T20:18:38.670Z,16.53
2022-07-27T20:21:16.618Z,16.76
2022-07-27T20:23:52.508Z,16.85
2022-07-27T20:26:21.437Z,16.73
2022-07-27T20:28:50.687Z,16.88
2022-07-27T20:31:18.583Z,16.74
2022-07-27T20:33:45.828Z,16.60
2022-07-27T20:36:14.140Z,16.83
2022-07-27T20:38:41.313Z,16.62
2022-07-27T20:41:08.402Z,16.58
2022-07-27T20:43:35.412Z,16.56
2022-07-27T20:46:02.302Z,16.56
2022-07-27T20:48:29.336Z,16.52
2022-07-27T20:50:56.345Z,16.49
2022-07-27T20:53:24.579Z,16.43
2022-07-27T20:55:52.136Z,16.43
2022-07-27T20:58:18.998Z,16.71
2022-07-27T21:00:46.286Z,16.39
2022-07-27T21:03:13.128Z,16.58
2022-07-27T21:05:39.960Z,16.70
2022-07-27T21:08:07.131Z,16.82
2022-07-27T21:10:34.266Z,16.36
2022-07-27T21:13:01.062Z,16.65
2022-07-27T21:15:33.681Z,16.63
2022-07-27T21:18:01.762Z,16.85
2022-07-27T21:20:29.207Z,16.71
2022-07-27T21:23:14.733Z,16.68
2022-07-27T21:25:41.593Z,16.87
2022-07-27T21:28:10.724Z,16.66
2022-07-27T21:30:40.132Z,16.39
2022-07-27T21:33:06.940Z,16.49
2022-07-27T21:35:33.955Z,16.41
2022-07-27T21:38:02.955Z,16.37
2022-07-27T21:40:29.713Z,16.50
2022-07-27T21:42:57.101Z,16.41
2022-07-27T21:45:24.108Z,16.15
2022-07-27T21:47:51.112Z,16.10
2022-07-27T21:50:18.274Z,16.05
2022-07-27T21:52:45.045Z,16.21
2022-07-27T21:55:11.834Z,16.07
2022-07-27T21:57:38.602Z,16.21
2022-07-27T22:00:06.999Z,16.18
2022-07-27T22:02:33.796Z,16.08
2022-07-27T22:05:00.534Z,16.03
2022-07-27T22:07:27.593Z,15.88
2022-07-27T22:09:54.341Z,15.73
2022-07-27T22:12:21.177Z,15.63
2022-07-27T22:14:47.937Z,15.76
2022-07-27T22:17:14.887Z,15.66
2022-07-27T22:19:41.662Z,15.24
2022-07-27T22:22:08.442Z,15.39
2022-07-27T22:24:35.181Z,15.48
2022-07-27T22:27:02.038Z,15.61
2022-07-27T22:29:28.781Z,15.55
2022-07-27T22:31:55.765Z,15.41
2022-07-27T22:34:22.720Z,15.39
2022-07-27T22:36:49.516Z,15.05
2022-07-27T22:39:16.343Z,15.03
2022-07-27T22:41:43.059Z,15.24
2022-07-27T22:44:09.819Z,15.28
2022-07-27T22:46:36.591Z,15.17
2022-07-27T22:49:04.423Z,15.08
2022-07-27T22:51:49.411Z,15.03
2022-07-27T22:54:17.732Z,15.08
2022-07-27T22:56:44.692Z,14.86
2022-07-27T22:59:11.505Z,15.12
2022-07-27T23:03:57.500Z,14.97
2022-07-27T23:06:24.463Z,14.85
2022-07-27T23:08:51.317Z,14.64
2022-07-27T23:11:18.056Z,14.79
2022-07-27T23:13:44.930Z,14.77
2022-07-27T23:16:12.263Z,14.86
2022-07-27T23:18:39.246Z,14.71
2022-07-27T23:21:06.028Z,14.66
2022-07-27T23:23:35.241Z,14.69
2022-07-27T23:26:06.641Z,14.58
2022-07-27T23:28:36.285Z,14.79
2022-07-27T23:31:03.166Z,14.51
2022-07-27T23:33:30.379Z,14.30
2022-07-27T23:35:57.220Z,14.49
2022-07-27T23:38:23.999Z,14.46
2022-07-27T23:40:51.050Z,14.42
2022-07-27T23:43:17.830Z,14.41
2022-07-27T23:45:44.623Z,13.93
2022-07-27T23:48:11.449Z,14.37
2022-07-27T23:50:38.211Z,14.32
2022-07-27T23:53:05.011Z,14.09
2022-07-27T23:55:36.081Z,14.29
2022-07-27T23:58:03.015Z,14.20
